Island Lake, Canada
Current Conditions -  °F | °C
As of 8:00 PM on Thursday 20 Nov 2014 (Local Time) from CYIV Reporting Station
Few Clouds Few Clouds  
Wind Chill: -10°   Ceiling: Unl
Heat Index:   Visibility: 15mi
Dew Point: -4°   Wind: 8mph
Humidity: 72%   Direction: 240°WSW
Pressure: 29.91"   Gusts: NA
Location:  53.85°N, 94.65°W
Report Text: CYIV 210200Z 24007KT 15SM FEW250 M16/M20 A2991 RMK CI1 SLP157
Loading
Personal Weather Stations






























Interactive Weather Map New forecast layout! Learn more

10-Day Weather Forecast

Advertisements
Track Severe Weather on mobile